Baingoin, China
Current Conditions -  °F | °C
As of 5:50 PM on Thursday 27 Nov 2014 (Local Time) from VNKT Reporting Station
Few Clouds Few Clouds  
Wind Chill: 63°   Ceiling: Unl
Heat Index: 63°   Visibility: 4mi
Dew Point: 48°   Wind: 10mph
Humidity: 59%   Direction: 290°WNW
Pressure: 29.97"   Gusts: NA
Location:  31.37°N, 90.02°E
Report Text: VNKT 270950Z 29009KT 7000 FEW025 17/09 Q1015 NOSIG
Loading
Personal Weather Stations






























Interactive Weather Map New forecast layout! Learn more

10-Day Weather Forecast

Advertisements
Track Severe Weather on mobile